Time;durP1;ratioP1;P1;durP2;ratioP2;P2;SDS_P1;SDS_P2;PMS_P1;PMS_P2;Temp;Humidity;BMP_temperature;BMP_pressure;BME280_temperature;BME280_humidity;BME280_pressure;Samples;Min_cycle;Max_cycle;Signal;HPM_P1;HPM_P2
2021/05/25 00:00:06;;;;;;;10.70;10.30;;;10.40;99.90;;;;;;5013113;28;20888;-70
2021/05/25 00:02:33;;;;;;;10.93;10.43;;;10.40;99.90;;;;;;5012578;28;20485;-69
2021/05/25 00:04:59;;;;;;;10.70;10.30;;;10.30;99.90;;;;;;5012677;28;20454;-68
2021/05/25 00:07:25;;;;;;;10.70;10.30;;;10.30;99.90;;;;;;5012858;28;20554;-69
2021/05/25 00:09:51;;;;;;;10.43;10.03;;;10.20;99.90;;;;;;5012755;28;20450;-68
2021/05/25 00:12:18;;;;;;;10.10;9.80;;;10.10;99.90;;;;;;5012866;28;20454;-68
2021/05/25 00:14:45;;;;;;;10.83;10.30;;;10.10;99.90;;;;;;5012968;28;20453;-68
2021/05/25 00:17:11;;;;;;;10.50;10.00;;;10.10;99.90;;;;;;5012861;28;20472;-69
2021/05/25 00:19:37;;;;;;;10.13;9.73;;;10.00;99.90;;;;;;5013097;28;20864;-69
2021/05/25 00:22:04;;;;;;;10.40;10.00;;;10.00;99.90;;;;;;5012731;28;20477;-69
2021/05/25 00:24:30;;;;;;;12.63;11.80;;;9.80;99.90;;;;;;5012817;28;20823;-69
2021/05/25 00:26:56;;;;;;;10.37;10.03;;;9.80;99.90;;;;;;5012592;28;20490;-69
2021/05/25 00:29:24;;;;;;;10.67;10.27;;;9.70;99.90;;;;;;5012566;28;20454;-69
2021/05/25 00:31:51;;;;;;;10.43;10.03;;;9.80;99.90;;;;;;5012289;28;20969;-69
2021/05/25 00:34:17;;;;;;;9.80;9.40;;;9.80;99.90;;;;;;5012224;28;20506;-69
2021/05/25 00:36:43;;;;;;;10.50;10.20;;;9.80;99.90;;;;;;5012839;28;20474;-69
2021/05/25 00:39:10;;;;;;;9.93;9.63;;;9.80;99.90;;;;;;5012303;28;20458;-69
2021/05/25 00:41:36;;;;;;;10.30;9.80;;;9.80;99.90;;;;;;5012435;28;20455;-69
2021/05/25 00:44:03;;;;;;;10.20;9.70;;;9.90;99.90;;;;;;5012046;28;20450;-69
2021/05/25 00:46:30;;;;;;;10.73;9.90;;;9.90;99.90;;;;;;5012185;28;21018;-69
2021/05/25 00:48:56;;;;;;;10.43;10.03;;;9.90;99.90;;;;;;5012260;28;20453;-69
2021/05/25 00:51:22;;;;;;;9.90;9.50;;;9.90;99.90;;;;;;5011838;28;20489;-69
2021/05/25 00:53:49;;;;;;;10.23;9.90;;;9.80;99.90;;;;;;5011833;28;20510;-68
2021/05/25 00:56:15;;;;;;;10.70;10.10;;;9.80;99.90;;;;;;5011977;28;20964;-68
2021/05/25 00:58:41;;;;;;;9.67;9.37;;;9.90;99.90;;;;;;5011975;28;20454;-68
2021/05/25 01:01:08;;;;;;;10.00;9.70;;;9.90;99.90;;;;;;5011782;28;20489;-68
2021/05/25 01:03:35;;;;;;;9.90;9.50;;;9.90;99.90;;;;;;5011999;28;20454;-68
2021/05/25 01:06:01;;;;;;;11.10;10.40;;;9.90;99.90;;;;;;5011696;28;20612;-68
2021/05/25 01:08:27;;;;;;;10.93;10.10;;;9.90;99.90;;;;;;5011820;28;20468;-69
2021/05/25 01:10:57;;;;;;;10.70;10.30;;;9.90;99.90;;;;;;5011733;28;20462;-68
2021/05/25 01:13:27;;;;;;;10.53;10.03;;;9.80;99.90;;;;;;5011734;28;20504;-68
2021/05/25 01:15:54;;;;;;;10.60;10.20;;;9.80;99.90;;;;;;5010690;28;20457;-68
2021/05/25 01:18:20;;;;;;;10.50;10.10;;;9.70;99.90;;;;;;5011614;28;20450;-68
2021/05/25 01:20:50;;;;;;;10.37;10.00;;;9.70;99.90;;;;;;5011425;28;20449;-68
2021/05/25 01:23:17;;;;;;;10.80;10.40;;;9.70;99.90;;;;;;5011486;28;20523;-68
2021/05/25 01:25:46;;;;;;;10.70;10.20;;;9.60;99.90;;;;;;5011542;28;20519;-68
2021/05/25 01:28:13;;;;;;;10.83;10.30;;;9.60;99.90;;;;;;5011485;28;20450;-69
2021/05/25 01:30:42;;;;;;;10.90;10.50;;;9.60;99.90;;;;;;5011401;28;20454;-69
2021/05/25 02:01:38;;;;;;;11.50;11.00;;;9.30;99.90;;;;;;5028341;23;20504;-68
2021/05/25 02:04:05;;;;;;;11.10;10.60;;;9.30;99.90;;;;;;5030024;28;20460;-68
2021/05/25 02:06:31;;;;;;;11.40;11.00;;;9.20;99.90;;;;;;5030526;28;20519;-68
2021/05/25 02:08:57;;;;;;;11.37;10.83;;;9.20;99.90;;;;;;5030177;28;20531;-68
2021/05/25 02:11:24;;;;;;;11.33;10.57;;;9.20;99.90;;;;;;5030294;28;20452;-68
2021/05/25 02:13:50;;;;;;;11.57;10.90;;;9.20;99.90;;;;;;5030265;28;20452;-68
2021/05/25 02:16:18;;;;;;;10.93;10.50;;;9.20;99.90;;;;;;5029861;28;20453;-68
2021/05/25 02:18:47;;;;;;;11.83;11.23;;;9.10;99.90;;;;;;5030218;28;20474;-68
2021/05/25 02:21:16;;;;;;;11.50;11.00;;;9.20;99.90;;;;;;5030316;28;20777;-68
2021/05/25 02:23:42;;;;;;;10.50;10.10;;;9.30;99.90;;;;;;5030277;28;20468;-68
2021/05/25 02:26:09;;;;;;;10.87;10.47;;;9.40;99.90;;;;;;5030332;28;20472;-68
2021/05/25 02:28:36;;;;;;;11.30;10.80;;;9.50;99.90;;;;;;5034175;28;20448;-67
2021/05/25 02:31:03;;;;;;;11.60;11.00;;;9.40;99.90;;;;;;5033772;28;20448;-68
2021/05/25 02:33:29;;;;;;;11.13;10.73;;;9.40;99.90;;;;;;5033767;28;20449;-68
2021/05/25 02:35:59;;;;;;;12.30;11.70;;;9.30;99.90;;;;;;5034092;28;20811;-68
2021/05/25 02:38:27;;;;;;;12.17;11.57;;;9.20;99.90;;;;;;5034006;28;20818;-69
2021/05/25 02:40:54;;;;;;;12.43;11.83;;;9.20;99.90;;;;;;5033972;28;20464;-68
2021/05/25 02:43:22;;;;;;;11.93;11.00;;;9.10;99.90;;;;;;5034014;28;20453;-68
2021/05/25 02:45:48;;;;;;;11.87;11.10;;;9.10;99.90;;;;;;5033522;28;20452;-67
2021/05/25 02:48:15;;;;;;;11.70;11.20;;;9.10;99.90;;;;;;5033933;28;20440;-68
2021/05/25 02:50:42;;;;;;;11.80;11.30;;;9.10;99.90;;;;;;5033224;28;20448;-68
2021/05/25 02:53:10;;;;;;;11.73;11.23;;;9.00;99.90;;;;;;5033799;28;20832;-68
2021/05/25 02:55:37;;;;;;;11.73;11.23;;;8.90;99.90;;;;;;5033959;28;20452;-68
2021/05/25 02:58:05;;;;;;;11.30;10.80;;;8.80;99.90;;;;;;5031563;28;20459;-68
2021/05/25 03:00:33;;;;;;;11.13;10.73;;;8.80;99.90;;;;;;5013590;28;20484;-68
2021/05/25 03:03:01;;;;;;;11.40;11.00;;;8.80;99.90;;;;;;5013659;28;20458;-68
2021/05/25 03:05:27;;;;;;;11.30;10.80;;;8.80;99.90;;;;;;5013639;28;20811;-69
2021/05/25 03:07:55;;;;;;;11.40;10.90;;;8.90;99.90;;;;;;5013745;28;20489;-67
2021/05/25 03:10:24;;;;;;;11.87;11.30;;;8.90;99.90;;;;;;5013624;28;20449;-68
2021/05/25 03:12:50;;;;;;;11.03;10.53;;;8.90;99.90;;;;;;5013993;28;20454;-68
2021/05/25 03:15:19;;;;;;;11.63;11.00;;;9.00;99.90;;;;;;5013163;28;20449;-68
2021/05/25 03:17:45;;;;;;;10.87;10.47;;;8.90;99.90;;;;;;5013602;28;20447;-68
2021/05/25 03:20:13;;;;;;;10.40;10.00;;;8.90;99.90;;;;;;5013574;28;20450;-68
2021/05/25 03:22:41;;;;;;;10.60;10.10;;;9.00;99.90;;;;;;5013696;28;20446;-68
2021/05/25 03:25:09;;;;;;;12.00;11.50;;;9.00;99.90;;;;;;5013155;28;20450;-69
2021/05/25 03:27:36;;;;;;;10.73;10.33;;;8.90;99.90;;;;;;5013366;28;21068;-68
2021/05/25 03:30:05;;;;;;;11.03;10.63;;;9.00;99.90;;;;;;5013259;28;20454;-69
2021/05/25 03:32:31;;;;;;;11.77;10.77;;;9.00;99.90;;;;;;5013159;28;20871;-68
2021/05/25 03:34:57;;;;;;;10.83;10.30;;;8.90;99.90;;;;;;5013016;28;21021;-68
2021/05/25 03:37:23;;;;;;;11.20;10.70;;;9.00;99.90;;;;;;5012950;28;20449;-68
2021/05/25 03:39:49;;;;;;;11.07;10.57;;;9.00;99.90;;;;;;5012171;28;20462;-67
2021/05/25 03:42:16;;;;;;;12.53;11.57;;;9.10;99.90;;;;;;5013257;28;20963;-68
2021/05/25 03:44:44;;;;;;;11.03;10.27;;;9.10;99.90;;;;;;5012958;28;20458;-68
2021/05/25 03:47:10;;;;;;;10.80;10.40;;;9.10;99.90;;;;;;5012477;28;20573;-67
2021/05/25 03:49:36;;;;;;;10.83;10.23;;;9.10;99.90;;;;;;5013158;28;20456;-68
2021/05/25 03:52:02;;;;;;;9.67;9.27;;;9.10;99.90;;;;;;5012608;28;20509;-68
2021/05/25 03:54:33;;;;;;;10.40;10.00;;;9.10;99.90;;;;;;5012856;28;20894;-68
2021/05/25 03:57:06;;;;;;;10.40;10.00;;;9.10;99.90;;;;;;5012603;28;20828;-68
2021/05/25 03:59:32;;;;;;;11.03;10.43;;;9.20;99.90;;;;;;5012182;28;20474;-69
2021/05/25 04:01:59;;;;;;;10.97;10.17;;;9.20;99.90;;;;;;5012171;28;20456;-68
2021/05/25 04:04:26;;;;;;;11.33;10.53;;;9.20;99.90;;;;;;5012567;28;20214;-68
2021/05/25 04:06:52;;;;;;;10.70;10.20;;;9.10;99.90;;;;;;5012745;28;20490;-68
2021/05/25 04:09:18;;;;;;;10.47;10.07;;;9.10;99.90;;;;;;5012165;28;20456;-68
2021/05/25 04:11:44;;;;;;;11.27;10.87;;;9.20;99.90;;;;;;5012170;28;20447;-68
2021/05/25 04:14:10;;;;;;;12.27;11.20;;;9.20;99.90;;;;;;5012304;28;20476;-68
2021/05/25 04:16:36;;;;;;;10.87;10.37;;;9.20;99.90;;;;;;5012164;28;20442;-68
2021/05/25 04:19:04;;;;;;;10.93;10.33;;;9.20;99.90;;;;;;5012336;28;20469;-68
2021/05/25 04:21:30;;;;;;;11.00;10.47;;;9.30;99.90;;;;;;5012010;28;20811;-68
2021/05/25 04:23:56;;;;;;;11.47;10.97;;;9.30;99.90;;;;;;5012261;28;20450;-68
2021/05/25 04:26:22;;;;;;;10.97;10.57;;;9.30;99.90;;;;;;5012188;28;20515;-68
2021/05/25 04:28:48;;;;;;;10.70;10.20;;;9.40;99.90;;;;;;5011782;28;20458;-68
2021/05/25 04:31:14;;;;;;;9.83;9.40;;;9.60;99.90;;;;;;5012244;28;20832;-67
2021/05/25 04:33:41;;;;;;;10.73;10.10;;;9.90;99.90;;;;;;5011784;28;20450;-68
2021/05/25 04:36:08;;;;;;;11.30;10.50;;;10.50;99.90;;;;;;5011834;28;20442;-68
2021/05/25 04:38:34;;;;;;;11.20;10.57;;;10.90;99.90;;;;;;5011862;28;20935;-68
2021/05/25 04:41:00;;;;;;;10.80;10.40;;;11.20;99.90;;;;;;5011979;28;20647;-67
2021/05/25 04:43:26;;;;;;;10.83;10.43;;;11.60;99.90;;;;;;5011560;28;20450;-68
2021/05/25 04:45:53;;;;;;;10.40;9.90;;;11.80;99.90;;;;;;5011442;28;20465;-68
2021/05/25 04:48:19;;;;;;;10.10;9.70;;;11.90;99.90;;;;;;5011585;28;20460;-68
2021/05/25 04:50:45;;;;;;;10.53;10.13;;;12.00;99.90;;;;;;5011057;28;20446;-68
2021/05/25 04:53:12;;;;;;;10.40;10.10;;;12.00;99.90;;;;;;5010995;28;20449;-69
2021/05/25 04:55:38;;;;;;;11.43;10.93;;;12.00;99.90;;;;;;5011306;28;20450;-67
2021/05/25 04:58:05;;;;;;;10.10;9.80;;;11.70;99.90;;;;;;5011178;28;20446;-68
2021/05/25 05:00:31;;;;;;;9.40;9.00;;;11.40;99.90;;;;;;5010610;28;20481;-67
2021/05/25 05:02:57;;;;;;;10.37;9.90;;;11.40;99.90;;;;;;5011119;28;20515;-68
2021/05/25 05:05:25;;;;;;;9.67;9.37;;;11.50;99.90;;;;;;5011029;28;20464;-68
2021/05/25 05:07:51;;;;;;;10.40;9.90;;;11.40;99.90;;;;;;5010879;28;20505;-68
2021/05/25 05:10:18;;;;;;;10.00;9.50;;;11.40;99.90;;;;;;5010921;28;20530;-68
2021/05/25 05:12:45;;;;;;;10.60;10.10;;;11.40;99.90;;;;;;5010976;28;20512;-68
2021/05/25 05:15:13;;;;;;;11.47;10.97;;;11.50;99.90;;;;;;5010715;28;20450;-68
2021/05/25 05:17:39;;;;;;;10.50;9.90;;;11.60;99.90;;;;;;5010801;28;20548;-68
2021/05/25 05:20:07;;;;;;;9.50;9.10;;;11.60;99.90;;;;;;5010969;28;20458;-68
2021/05/25 05:22:34;;;;;;;10.20;9.47;;;11.60;99.90;;;;;;5010816;28;20449;-68
2021/05/25 05:25:00;;;;;;;9.30;9.00;;;11.70;99.90;;;;;;5010701;28;20512;-69
2021/05/25 05:27:27;;;;;;;9.73;9.10;;;11.50;99.90;;;;;;5011053;28;20493;-69
2021/05/25 05:29:53;;;;;;;9.00;8.67;;;11.70;99.90;;;;;;5010567;28;20987;-69
2021/05/25 05:32:19;;;;;;;8.67;8.37;;;11.80;99.90;;;;;;5010828;28;20473;-69
2021/05/25 05:34:46;;;;;;;9.73;9.23;;;12.20;99.90;;;;;;5010621;28;20663;-70
2021/05/25 05:37:12;;;;;;;9.37;8.87;;;12.30;99.90;;;;;;5010497;28;21013;-69
2021/05/25 05:39:39;;;;;;;9.60;9.30;;;12.10;99.90;;;;;;5010499;28;20805;-69
2021/05/25 05:42:06;;;;;;;9.73;9.30;;;12.40;99.90;;;;;;5010573;28;21006;-68
2021/05/25 05:44:33;;;;;;;9.87;9.47;;;12.40;99.90;;;;;;5010388;28;20466;-69
2021/05/25 05:46:59;;;;;;;10.77;10.30;;;12.30;99.90;;;;;;5010305;28;20654;-68
2021/05/25 05:49:25;;;;;;;11.00;10.50;;;12.50;99.90;;;;;;5010399;28;20457;-69
2021/05/25 05:51:52;;;;;;;10.13;9.60;;;12.70;99.90;;;;;;5010183;28;20462;-69
2021/05/25 05:54:18;;;;;;;9.60;9.30;;;13.00;99.90;;;;;;5010402;28;20454;-69
2021/05/25 05:56:47;;;;;;;9.53;9.13;;;12.80;99.90;;;;;;5010055;28;20446;-69
2021/05/25 05:59:13;;;;;;;10.33;10.00;;;12.40;99.90;;;;;;5010037;28;20920;-69
2021/05/25 06:01:41;;;;;;;10.37;9.87;;;12.50;99.90;;;;;;5011286;28;20478;-69
2021/05/25 06:04:07;;;;;;;9.80;9.40;;;13.30;99.90;;;;;;5014550;28;20516;-69
2021/05/25 06:06:33;;;;;;;10.80;10.40;;;14.40;99.00;;;;;;5014413;28;20532;-69
2021/05/25 06:08:59;;;;;;;11.43;10.93;;;15.10;96.60;;;;;;5014240;28;20987;-69
2021/05/25 06:11:25;;;;;;;11.43;10.83;;;15.40;96.20;;;;;;5014258;28;20450;-69
2021/05/25 06:13:52;;;;;;;10.60;10.20;;;15.30;95.80;;;;;;5014306;28;20535;-69
2021/05/25 06:16:18;;;;;;;9.57;9.17;;;14.90;95.40;;;;;;5014275;28;20464;-69
2021/05/25 06:18:45;;;;;;;11.20;10.60;;;14.60;96.60;;;;;;5014298;28;20457;-69
2021/05/25 06:21:11;;;;;;;10.10;9.73;;;14.60;96.10;;;;;;5014045;28;20461;-69
2021/05/25 06:23:38;;;;;;;10.93;10.50;;;14.30;95.80;;;;;;5014254;28;20457;-69
2021/05/25 06:26:04;;;;;;;9.20;8.90;;;14.20;96.20;;;;;;5014020;28;20461;-69
2021/05/25 06:28:32;;;;;;;10.73;9.17;;;14.00;96.50;;;;;;5014058;28;20461;-69
2021/05/25 06:30:59;;;;;;;11.30;10.60;;;14.10;96.90;;;;;;5014080;28;20446;-69
2021/05/25 06:33:25;;;;;;;11.30;10.60;;;13.90;97.00;;;;;;5013724;28;20450;-68
2021/05/25 06:35:52;;;;;;;10.20;9.70;;;14.10;97.50;;;;;;5013608;28;20809;-69
2021/05/25 06:38:19;;;;;;;10.30;9.80;;;14.20;96.70;;;;;;5013546;28;20515;-68
2021/05/25 06:40:45;;;;;;;10.10;9.70;;;14.10;96.40;;;;;;5013594;28;21006;-69
2021/05/25 06:43:12;;;;;;;10.47;9.97;;;14.20;96.60;;;;;;5013386;28;20458;-68
2021/05/25 06:45:38;;;;;;;9.97;9.57;;;14.50;95.70;;;;;;5013543;28;20457;-69
2021/05/25 06:48:05;;;;;;;10.47;10.07;;;14.70;94.20;;;;;;5013459;28;20485;-68
2021/05/25 06:50:32;;;;;;;9.87;9.57;;;14.50;94.40;;;;;;5013362;28;20458;-68
2021/05/25 06:52:59;;;;;;;10.10;9.80;;;15.00;94.50;;;;;;4993937;28;20473;-68
2021/05/25 06:55:25;;;;;;;8.93;8.70;;;15.30;93.50;;;;;;4993729;28;20508;-68
2021/05/25 06:57:51;;;;;;;10.43;10.10;;;15.30;92.50;;;;;;4993717;28;20554;-69
2021/05/25 07:00:18;;;;;;;10.40;10.00;;;15.30;92.60;;;;;;4993372;28;20482;-69
2021/05/25 07:02:45;;;;;;;10.63;10.23;;;15.80;91.90;;;;;;4993643;28;20854;-69
2021/05/25 07:05:11;;;;;;;10.53;10.13;;;16.40;91.00;;;;;;4993248;28;20458;-69
2021/05/25 07:07:38;;;;;;;9.80;9.50;;;16.20;91.10;;;;;;4993385;28;20859;-69
2021/05/25 07:10:06;;;;;;;10.10;9.60;;;16.00;91.20;;;;;;4993397;28;20457;-68
2021/05/25 07:12:32;;;;;;;10.03;9.73;;;15.50;91.80;;;;;;4993372;28;20937;-69
2021/05/25 07:14:59;;;;;;;10.10;9.70;;;15.30;92.40;;;;;;4993234;28;20509;-69
2021/05/25 07:17:25;;;;;;;10.13;9.63;;;15.30;92.60;;;;;;4993567;28;20443;-68
2021/05/25 07:19:52;;;;;;;10.13;9.80;;;14.80;92.00;;;;;;4993524;28;20715;-68
2021/05/25 07:22:18;;;;;;;10.40;9.90;;;14.50;93.00;;;;;;4993220;28;20516;-69
2021/05/25 07:24:46;;;;;;;9.63;9.23;;;14.50;93.40;;;;;;4993323;28;20473;-69
2021/05/25 07:27:13;;;;;;;10.07;9.67;;;14.60;93.10;;;;;;4993079;28;20491;-69
2021/05/25 07:29:39;;;;;;;11.67;11.17;;;15.00;92.70;;;;;;4993064;28;20813;-69
2021/05/25 07:32:06;;;;;;;9.50;9.20;;;15.10;92.10;;;;;;4993261;28;20455;-69
2021/05/25 07:34:33;;;;;;;10.20;9.90;;;15.30;92.00;;;;;;4993025;28;20455;-69
2021/05/25 07:36:59;;;;;;;10.57;9.87;;;15.50;91.50;;;;;;4993067;28;20999;-69
2021/05/25 07:39:26;;;;;;;9.97;9.57;;;15.80;90.90;;;;;;4993097;28;20860;-68
2021/05/25 07:41:52;;;;;;;9.80;9.50;;;15.90;91.00;;;;;;4992989;28;20459;-69
2021/05/25 07:44:19;;;;;;;9.33;9.03;;;15.60;90.30;;;;;;4992963;28;20474;-69
2021/05/25 07:46:45;;;;;;;10.17;9.63;;;15.00;90.30;;;;;;4992656;28;20814;-69
2021/05/25 07:49:11;;;;;;;10.70;10.17;;;14.70;90.60;;;;;;4992408;28;20785;-69
2021/05/25 07:51:37;;;;;;;9.97;9.67;;;14.40;91.00;;;;;;5001480;28;20454;-70
2021/05/25 07:54:04;;;;;;;9.80;9.50;;;14.30;91.60;;;;;;5011858;28;20552;-69
2021/05/25 07:56:31;;;;;;;10.20;9.80;;;14.50;91.60;;;;;;5012360;28;20445;-69
2021/05/25 07:58:57;;;;;;;10.93;10.50;;;14.90;91.20;;;;;;5011995;28;20474;-69
2021/05/25 08:01:24;;;;;;;11.40;11.00;;;15.20;90.40;;;;;;5012230;28;20921;-69
2021/05/25 08:03:50;;;;;;;10.50;10.20;;;15.40;90.40;;;;;;5012303;28;20527;-68
2021/05/25 08:06:16;;;;;;;9.80;9.50;;;15.50;89.80;;;;;;5011889;28;20450;-68
2021/05/25 08:08:42;;;;;;;10.40;9.90;;;15.30;88.10;;;;;;5012097;28;20454;-68
2021/05/25 08:11:12;;;;;;;10.57;9.90;;;15.40;88.50;;;;;;5011874;28;21027;-68
2021/05/25 08:13:39;;;;;;;10.83;10.33;;;15.50;88.30;;;;;;5011832;28;20450;-68
2021/05/25 08:16:06;;;;;;;10.27;9.87;;;15.30;88.40;;;;;;5011837;28;20457;-68
2021/05/25 08:18:47;;;;;;;10.67;10.27;;;15.40;89.30;;;;;;5011684;28;20454;-68
2021/05/25 08:21:14;;;;;;;10.57;10.20;;;15.30;89.20;;;;;;5011859;28;20815;-68
2021/05/25 08:23:42;;;;;;;10.40;9.90;;;15.20;90.30;;;;;;5010043;28;20472;-69
2021/05/25 08:26:08;;;;;;;10.13;9.83;;;15.10;89.10;;;;;;5012034;28;20940;-68
2021/05/25 08:28:34;;;;;;;10.20;9.80;;;15.10;88.30;;;;;;5012010;28;20490;-69
2021/05/25 08:31:00;;;;;;;9.97;9.67;;;14.90;87.60;;;;;;5012557;28;20450;-68
2021/05/25 08:33:27;;;;;;;10.80;10.30;;;15.00;88.70;;;;;;5012454;28;20461;-68
2021/05/25 08:35:54;;;;;;;10.30;10.00;;;15.20;88.90;;;;;;5012407;28;20781;-68
2021/05/25 08:38:22;;;;;;;11.13;10.73;;;15.20;87.80;;;;;;5012613;28;20446;-68
2021/05/25 08:40:51;;;;;;;10.63;10.30;;;15.00;87.00;;;;;;5012473;28;20448;-68
2021/05/25 08:43:17;;;;;;;11.33;10.80;;;15.00;87.90;;;;;;5012327;28;20454;-68
2021/05/25 08:45:44;;;;;;;11.20;10.70;;;15.20;87.20;;;;;;5012390;28;20520;-69
2021/05/25 08:48:11;;;;;;;10.07;9.73;;;15.40;87.00;;;;;;5012229;28;20493;-68
2021/05/25 08:50:38;;;;;;;10.43;9.80;;;15.50;87.50;;;;;;5012136;28;20531;-68
2021/05/25 08:53:06;;;;;;;9.50;9.20;;;15.50;86.60;;;;;;5012182;28;20967;-67
2021/05/25 08:55:35;;;;;;;9.53;8.90;;;15.50;87.60;;;;;;5012409;28;20450;-68
2021/05/25 08:58:02;;;;;;;9.40;8.90;;;15.30;86.70;;;;;;5012069;28;20532;-68
2021/05/25 09:00:28;;;;;;;9.90;9.53;;;15.10;86.20;;;;;;5011673;28;20489;-69
2021/05/25 09:02:55;;;;;;;9.40;9.10;;;15.30;85.90;;;;;;5012076;28;20453;-69
2021/05/25 09:05:22;;;;;;;9.93;9.63;;;15.40;86.30;;;;;;5012001;28;20460;-69
2021/05/25 09:07:49;;;;;;;9.70;9.40;;;15.40;85.50;;;;;;5011994;28;20539;-69
2021/05/25 09:10:19;;;;;;;9.10;8.80;;;15.60;86.60;;;;;;5011912;28;20486;-69
2021/05/25 09:12:48;;;;;;;10.60;10.20;;;15.50;86.50;;;;;;5011746;28;20454;-69
2021/05/25 09:15:16;;;;;;;9.70;9.40;;;15.50;87.20;;;;;;5011780;28;20484;-69
2021/05/25 09:17:43;;;;;;;10.00;9.70;;;15.40;87.40;;;;;;5011697;28;20456;-68
2021/05/25 09:20:12;;;;;;;9.63;9.33;;;15.70;85.80;;;;;;5011662;28;20975;-68
2021/05/25 09:22:41;;;;;;;9.60;9.00;;;15.70;86.40;;;;;;5011726;28;20454;-71
2021/05/25 09:25:14;;;;;;;9.97;9.60;;;15.70;86.40;;;;;;5011515;28;20452;-68
2021/05/25 09:27:45;;;;;;;10.30;9.90;;;15.80;86.70;;;;;;5011423;28;20500;-70
2021/05/25 09:30:18;;;;;;;10.33;9.93;;;16.20;86.20;;;;;;5011421;28;20458;-68
2021/05/25 09:32:48;;;;;;;9.60;9.20;;;16.30;84.00;;;;;;5011468;28;20446;-69
2021/05/25 09:35:15;;;;;;;10.27;9.70;;;16.30;84.70;;;;;;5011364;28;21159;-69
2021/05/25 09:37:43;;;;;;;10.90;10.30;;;15.90;85.10;;;;;;5010918;28;20804;-68
2021/05/25 09:40:10;;;;;;;9.30;8.90;;;15.60;87.20;;;;;;5011747;28;20450;-68
2021/05/25 09:42:37;;;;;;;9.97;9.67;;;15.50;86.90;;;;;;5011542;28;20450;-69
2021/05/25 09:45:08;;;;;;;9.87;9.53;;;15.10;90.30;;;;;;5011398;28;20566;-68
2021/05/25 09:47:36;;;;;;;10.43;10.10;;;15.80;90.40;;;;;;5011317;28;20572;-69
2021/05/25 09:50:04;;;;;;;10.00;9.70;;;16.10;87.90;;;;;;5011188;28;20458;-70
2021/05/25 09:52:30;;;;;;;10.30;9.90;;;16.00;87.20;;;;;;5011231;28;20461;-69
2021/05/25 09:55:08;;;;;;;10.30;9.90;;;15.60;88.80;;;;;;5011295;28;20457;-69
2021/05/25 09:57:49;;;;;;;10.57;10.17;;;15.10;91.10;;;;;;5011441;28;20445;-68
2021/05/25 10:00:34;;;;;;;10.93;10.33;;;14.90;92.50;;;;;;5011074;28;20528;-69
2021/05/25 10:03:13;;;;;;;11.30;10.30;;;14.90;93.40;;;;;;5011199;28;20840;-69
2021/05/25 10:05:41;;;;;;;10.90;10.30;;;15.10;91.00;;;;;;5011311;28;20464;-69
2021/05/25 10:08:07;;;;;;;10.67;10.07;;;15.40;90.40;;;;;;5011075;28;21041;-68
2021/05/25 10:10:35;;;;;;;10.53;9.90;;;15.60;86.80;;;;;;5011206;28;20508;-68
2021/05/25 10:13:01;;;;;;;11.80;11.20;;;16.00;86.20;;;;;;5011132;28;20832;-68
2021/05/25 10:15:30;;;;;;;11.23;10.63;;;16.40;86.00;;;;;;5011091;28;20446;-68
2021/05/25 10:18:10;;;;;;;10.27;9.90;;;17.30;81.70;;;;;;5011047;28;20553;-69
2021/05/25 10:20:38;;;;;;;11.63;10.60;;;17.30;80.30;;;;;;5011081;28;20457;-70
2021/05/25 10:23:05;;;;;;;10.77;10.27;;;17.30;79.60;;;;;;5011110;28;20458;-69
2021/05/25 10:25:34;;;;;;;11.10;10.50;;;17.80;76.80;;;;;;5011084;28;20461;-69
2021/05/25 10:28:06;;;;;;;10.33;9.93;;;18.10;77.60;;;;;;5010802;28;20497;-69
2021/05/25 10:30:50;;;;;;;11.00;10.50;;;18.90;73.70;;;;;;5010920;28;20458;-70
2021/05/25 10:33:22;;;;;;;11.17;10.77;;;19.20;72.00;;;;;;5010949;28;20467;-68
2021/05/25 10:35:50;;;;;;;11.47;11.00;;;19.60;69.70;;;;;;5011053;28;20457;-68
2021/05/25 10:38:17;;;;;;;10.63;10.03;;;18.70;70.40;;;;;;5010969;28;20504;-69
2021/05/25 10:40:46;;;;;;;11.00;10.60;;;18.10;72.60;;;;;;5010831;28;20449;-70
2021/05/25 10:43:52;;;;;;;11.50;11.03;;;17.70;73.00;;;;;;5010857;28;20458;-69
2021/05/25 10:46:25;;;;;;;10.50;9.90;;;17.20;74.10;;;;;;5005840;28;20465;-69
2021/05/25 10:49:04;;;;;;;10.47;10.07;;;17.00;75.70;;;;;;5013870;28;20456;-69
2021/05/25 10:52:13;;;;;;;10.90;10.50;;;16.70;77.10;;;;;;5014125;28;20870;-69
2021/05/25 10:54:50;;;;;;;11.33;10.80;;;17.10;76.70;;;;;;5014343;28;20457;-70
2021/05/25 10:57:48;;;;;;;10.57;9.97;;;17.00;79.60;;;;;;5014396;28;20516;-68
2021/05/25 11:00:17;;;;;;;10.03;9.73;;;16.00;82.90;;;;;;4980729;28;20577;-68
2021/05/25 11:02:47;;;;;;;10.10;9.80;;;15.80;83.10;;;;;;5014259;28;20445;-69
2021/05/25 11:05:56;;;;;;;10.67;10.27;;;16.00;85.30;;;;;;5014293;28;20508;-69
2021/05/25 11:08:43;;;;;;;10.63;10.10;;;16.00;88.00;;;;;;5014298;28;20528;-69
2021/05/25 11:11:14;;;;;;;10.27;9.77;;;15.90;88.60;;;;;;5013948;28;20445;-69
2021/05/25 11:13:52;;;;;;;10.50;10.10;;;16.10;90.10;;;;;;5013687;28;20458;-69
2021/05/25 11:16:35;;;;;;;10.13;9.73;;;16.10;88.40;;;;;;5013708;28;20446;-68
2021/05/25 11:19:43;;;;;;;10.80;10.30;;;16.20;88.30;;;;;;5013582;28;20450;-69
2021/05/25 11:22:23;;;;;;;10.30;9.90;;;16.10;90.10;;;;;;5013969;28;20445;-69
2021/05/25 11:25:00;;;;;;;16.70;16.10;;;15.80;90.40;;;;;;5011919;28;20449;-70
2021/05/25 11:27:29;;;;;;;18.80;18.10;;;15.40;94.90;;;;;;5013601;28;20481;-72
2021/05/25 11:29:59;;;;;;;29.33;28.23;;;14.60;99.80;;;;;;5013521;28;20461;-72
2021/05/25 11:32:27;;;;;;;30.30;29.03;;;13.60;99.90;;;;;;5013703;28;20458;-73
2021/05/25 11:34:59;;;;;;;27.43;26.00;;;12.80;99.90;;;;;;5013326;28;20504;-72
2021/05/25 11:37:27;;;;;;;24.60;23.50;;;12.70;99.90;;;;;;5013203;28;20859;-71
2021/05/25 11:39:54;;;;;;;17.80;16.80;;;12.90;99.90;;;;;;5013317;28;20458;-71
2021/05/25 11:42:26;;;;;;;13.70;13.20;;;13.90;99.90;;;;;;5013031;28;20453;-70
2021/05/25 11:44:53;;;;;;;13.37;12.90;;;15.10;99.90;;;;;;5013898;28;20861;-70
2021/05/25 11:47:20;;;;;;;14.23;13.70;;;16.40;99.90;;;;;;5013217;28;20485;-71
2021/05/25 11:49:46;;;;;;;13.77;13.23;;;17.10;99.90;;;;;;5013106;28;20599;-72
2021/05/25 11:52:32;;;;;;;13.80;13.20;;;17.10;99.90;;;;;;5012841;28;20861;-72
2021/05/25 11:55:00;;;;;;;13.50;12.73;;;17.40;99.90;;;;;;5013376;28;20445;-72
2021/05/25 11:57:30;;;;;;;13.07;12.60;;;17.80;97.60;;;;;;5013183;28;20500;-72
2021/05/25 11:59:56;;;;;;;12.73;12.23;;;18.70;99.50;;;;;;5012273;28;20527;-71
2021/05/25 12:02:24;;;;;;;12.53;12.10;;;19.00;93.40;;;;;;5013262;28;20871;-71
2021/05/25 12:04:59;;;;;;;13.30;12.70;;;19.50;92.70;;;;;;5013114;28;20446;-72
2021/05/25 12:07:26;;;;;;;13.40;12.90;;;20.40;92.00;;;;;;5012844;28;20485;-71
2021/05/25 12:09:54;;;;;;;13.07;12.60;;;20.40;84.20;;;;;;5013204;28;20545;-72
2021/05/25 12:12:25;;;;;;;12.60;12.03;;;20.50;85.20;;;;;;5012831;28;20931;-70
2021/05/25 12:14:52;;;;;;;11.67;11.27;;;19.90;82.40;;;;;;5013086;28;20450;-70
2021/05/25 12:17:22;;;;;;;12.50;11.90;;;19.10;81.00;;;;;;5012723;28;20508;-69
2021/05/25 12:19:53;;;;;;;12.07;11.67;;;19.10;81.50;;;;;;5012790;28;20474;-69
2021/05/25 12:22:32;;;;;;;11.37;10.83;;;19.40;81.80;;;;;;5009084;28;20460;-69
2021/05/25 12:25:24;;;;;;;16.27;12.20;;;19.90;79.30;;;;;;5012312;28;20450;-69
2021/05/25 12:27:52;;;;;;;13.07;12.30;;;20.20;78.70;;;;;;5012376;28;20485;-69
2021/05/25 12:30:22;;;;;;;13.07;12.07;;;20.00;73.30;;;;;;5012413;28;20460;-69
2021/05/25 12:32:49;;;;;;;13.70;12.83;;;20.40;75.40;;;;;;5012362;28;20872;-69
2021/05/25 12:35:21;;;;;;;17.30;16.07;;;21.10;70.10;;;;;;5012199;28;20450;-68
2021/05/25 12:38:04;;;;;;;15.90;14.87;;;20.30;68.60;;;;;;5012229;28;20492;-69
2021/05/25 12:40:32;;;;;;;20.43;18.83;;;19.80;70.50;;;;;;5012141;28;20457;-69
2021/05/25 12:42:58;;;;;;;11.27;10.77;;;19.80;71.20;;;;;;5012117;28;20573;-69
2021/05/25 12:45:30;;;;;;;11.07;10.67;;;20.50;68.90;;;;;;5011646;28;20446;-69
2021/05/25 12:47:58;;;;;;;11.73;11.33;;;20.00;67.40;;;;;;5011931;28;20536;-70
2021/05/25 12:50:31;;;;;;;10.87;10.57;;;20.00;66.10;;;;;;5011964;28;20461;-69
2021/05/25 12:53:06;;;;;;;11.60;11.20;;;19.20;67.10;;;;;;5011940;28;20461;-70
2021/05/25 12:55:33;;;;;;;11.70;11.10;;;19.80;67.40;;;;;;5012068;28;20456;-69
2021/05/25 12:58:00;;;;;;;11.50;11.00;;;20.60;64.00;;;;;;5011904;28;20507;-69
2021/05/25 13:00:29;;;;;;;11.50;11.10;;;19.90;66.30;;;;;;5011641;28;20535;-69
2021/05/25 13:02:56;;;;;;;11.97;11.37;;;19.60;67.20;;;;;;5011641;28;20446;-69
2021/05/25 13:05:24;;;;;;;11.47;10.97;;;19.10;68.20;;;;;;5011983;28;20484;-69
2021/05/25 13:07:56;;;;;;;11.40;10.90;;;19.50;68.50;;;;;;5011891;28;20497;-69
2021/05/25 13:10:25;;;;;;;10.40;10.00;;;20.40;65.80;;;;;;5011919;28;20453;-69